sensor_id;sensor_type;location;lat;lon;timestamp;temperature;humidity
22558;DHT22;11445;53.816;8.902;2023-06-24T00:00:50;17.90;99.90
22558;DHT22;11445;53.816;8.902;2023-06-24T00:03:17;17.90;99.90
22558;DHT22;11445;53.816;8.902;2023-06-24T00:05:44;17.90;99.90
22558;DHT22;11445;53.816;8.902;2023-06-24T00:08:15;17.80;99.90
22558;DHT22;11445;53.816;8.902;2023-06-24T00:10:43;17.80;99.90
22558;DHT22;11445;53.816;8.902;2023-06-24T00:13:10;17.70;99.90
22558;DHT22;11445;53.816;8.902;2023-06-24T00:15:36;17.70;99.90
22558;DHT22;11445;53.816;8.902;2023-06-24T00:18:09;17.70;99.90
22558;DHT22;11445;53.816;8.902;2023-06-24T00:20:36;17.60;99.90
22558;DHT22;11445;53.816;8.902;2023-06-24T00:23:03;17.60;99.90
22558;DHT22;11445;53.816;8.902;2023-06-24T00:25:30;17.60;99.90
22558;DHT22;11445;53.816;8.902;2023-06-24T00:27:57;17.60;99.90
22558;DHT22;11445;53.816;8.902;2023-06-24T00:30:26;17.60;99.90
22558;DHT22;11445;53.816;8.902;2023-06-24T00:32:53;17.50;99.90
22558;DHT22;11445;53.816;8.902;2023-06-24T00:35:21;17.50;99.90
22558;DHT22;11445;53.816;8.902;2023-06-24T00:37:47;17.40;99.90
22558;DHT22;11445;53.816;8.902;2023-06-24T00:40:15;17.40;99.90
22558;DHT22;11445;53.816;8.902;2023-06-24T00:42:43;17.40;99.90
22558;DHT22;11445;53.816;8.902;2023-06-24T00:45:11;17.40;99.90
22558;DHT22;11445;53.816;8.902;2023-06-24T00:47:38;17.30;99.90
22558;DHT22;11445;53.816;8.902;2023-06-24T00:50:06;17.30;99.90
22558;DHT22;11445;53.816;8.902;2023-06-24T00:52:34;17.30;99.90
22558;DHT22;11445;53.816;8.902;2023-06-24T00:55:05;17.20;99.90
22558;DHT22;11445;53.816;8.902;2023-06-24T00:57:32;17.20;99.90
22558;DHT22;11445;53.816;8.902;2023-06-24T00:59:59;17.20;99.90
22558;DHT22;11445;53.816;8.902;2023-06-24T01:02:26;17.20;99.90
22558;DHT22;11445;53.816;8.902;2023-06-24T01:04:53;17.20;99.90
22558;DHT22;11445;53.816;8.902;2023-06-24T01:07:21;17.20;99.90
22558;DHT22;11445;53.816;8.902;2023-06-24T01:09:49;17.20;99.90
22558;DHT22;11445;53.816;8.902;2023-06-24T01:12:16;17.10;99.90
22558;DHT22;11445;53.816;8.902;2023-06-24T01:14:43;17.10;99.90
22558;DHT22;11445;53.816;8.902;2023-06-24T01:17:14;17.10;99.90
22558;DHT22;11445;53.816;8.902;2023-06-24T01:19:57;17.00;99.90
22558;DHT22;11445;53.816;8.902;2023-06-24T01:22:45;17.10;99.90
22558;DHT22;11445;53.816;8.902;2023-06-24T01:25:29;17.00;99.90
22558;DHT22;11445;53.816;8.902;2023-06-24T01:28:24;17.00;99.90
22558;DHT22;11445;53.816;8.902;2023-06-24T01:33:54;17.00;99.90
22558;DHT22;11445;53.816;8.902;2023-06-24T01:36:26;16.90;99.90
22558;DHT22;11445;53.816;8.902;2023-06-24T01:38:58;16.90;99.90
22558;DHT22;11445;53.816;8.902;2023-06-24T01:41:31;16.90;99.90
22558;DHT22;11445;53.816;8.902;2023-06-24T01:43:59;16.90;99.90
22558;DHT22;11445;53.816;8.902;2023-06-24T01:46:29;16.90;99.90
22558;DHT22;11445;53.816;8.902;2023-06-24T01:49:01;16.80;99.90
22558;DHT22;11445;53.816;8.902;2023-06-24T01:51:30;16.80;99.90
22558;DHT22;11445;53.816;8.902;2023-06-24T01:54:00;16.80;99.90
22558;DHT22;11445;53.816;8.902;2023-06-24T01:56:28;16.70;99.90
22558;DHT22;11445;53.816;8.902;2023-06-24T01:58:57;16.70;99.90
22558;DHT22;11445;53.816;8.902;2023-06-24T02:01:25;16.70;99.90
22558;DHT22;11445;53.816;8.902;2023-06-24T02:03:53;16.70;99.90
22558;DHT22;11445;53.816;8.902;2023-06-24T02:06:23;16.70;99.90
22558;DHT22;11445;53.816;8.902;2023-06-24T02:08:51;16.60;99.90
22558;DHT22;11445;53.816;8.902;2023-06-24T02:11:20;16.60;99.90
22558;DHT22;11445;53.816;8.902;2023-06-24T02:13:48;16.60;99.90
22558;DHT22;11445;53.816;8.902;2023-06-24T02:16:17;16.60;99.90
22558;DHT22;11445;53.816;8.902;2023-06-24T02:18:44;16.60;99.90
22558;DHT22;11445;53.816;8.902;2023-06-24T02:21:14;16.60;99.90
22558;DHT22;11445;53.816;8.902;2023-06-24T02:23:45;16.60;99.90
22558;DHT22;11445;53.816;8.902;2023-06-24T02:26:13;16.60;99.90
22558;DHT22;11445;53.816;8.902;2023-06-24T02:28:40;16.60;99.90
22558;DHT22;11445;53.816;8.902;2023-06-24T02:31:09;16.60;99.90
22558;DHT22;11445;53.816;8.902;2023-06-24T02:33:37;16.60;99.90
22558;DHT22;11445;53.816;8.902;2023-06-24T02:36:04;16.60;99.90
22558;DHT22;11445;53.816;8.902;2023-06-24T02:38:31;16.60;99.90
22558;DHT22;11445;53.816;8.902;2023-06-24T02:40:59;16.50;99.90
22558;DHT22;11445;53.816;8.902;2023-06-24T02:43:29;16.50;99.90
22558;DHT22;11445;53.816;8.902;2023-06-24T02:45:58;16.50;99.90
22558;DHT22;11445;53.816;8.902;2023-06-24T02:48:26;16.50;99.90
22558;DHT22;11445;53.816;8.902;2023-06-24T02:50:55;16.50;99.90
22558;DHT22;11445;53.816;8.902;2023-06-24T02:53:22;16.50;99.90
22558;DHT22;11445;53.816;8.902;2023-06-24T02:55:50;16.40;99.90
22558;DHT22;11445;53.816;8.902;2023-06-24T02:58:19;16.40;99.90
22558;DHT22;11445;53.816;8.902;2023-06-24T03:00:46;16.40;99.90
22558;DHT22;11445;53.816;8.902;2023-06-24T03:03:15;16.40;99.90
22558;DHT22;11445;53.816;8.902;2023-06-24T03:05:42;16.40;99.90
22558;DHT22;11445;53.816;8.902;2023-06-24T03:08:10;16.40;99.90
22558;DHT22;11445;53.816;8.902;2023-06-24T03:10:37;16.30;99.90
22558;DHT22;11445;53.816;8.902;2023-06-24T03:13:04;16.40;99.90
22558;DHT22;11445;53.816;8.902;2023-06-24T03:15:32;16.30;99.90
22558;DHT22;11445;53.816;8.902;2023-06-24T03:17:59;16.30;99.90
22558;DHT22;11445;53.816;8.902;2023-06-24T03:20:26;16.30;99.90
22558;DHT22;11445;53.816;8.902;2023-06-24T03:22:53;16.30;99.90
22558;DHT22;11445;53.816;8.902;2023-06-24T03:25:21;16.30;99.90
22558;DHT22;11445;53.816;8.902;2023-06-24T03:27:48;16.30;99.90
22558;DHT22;11445;53.816;8.902;2023-06-24T03:30:15;16.30;99.90
22558;DHT22;11445;53.816;8.902;2023-06-24T03:32:43;16.30;99.90
22558;DHT22;11445;53.816;8.902;2023-06-24T03:35:12;16.30;99.90
22558;DHT22;11445;53.816;8.902;2023-06-24T03:37:40;16.40;99.90
22558;DHT22;11445;53.816;8.902;2023-06-24T03:40:08;16.30;99.90
22558;DHT22;11445;53.816;8.902;2023-06-24T03:42:34;16.30;99.90
22558;DHT22;11445;53.816;8.902;2023-06-24T03:45:02;16.30;99.90
22558;DHT22;11445;53.816;8.902;2023-06-24T03:47:29;16.30;99.90
22558;DHT22;11445;53.816;8.902;2023-06-24T03:49:57;16.30;99.90
22558;DHT22;11445;53.816;8.902;2023-06-24T03:52:24;16.40;99.90
22558;DHT22;11445;53.816;8.902;2023-06-24T03:54:51;16.40;99.90
22558;DHT22;11445;53.816;8.902;2023-06-24T03:57:19;16.40;99.90
22558;DHT22;11445;53.816;8.902;2023-06-24T03:59:46;16.40;99.90
22558;DHT22;11445;53.816;8.902;2023-06-24T04:02:13;16.50;99.90
22558;DHT22;11445;53.816;8.902;2023-06-24T04:04:40;16.50;99.90
22558;DHT22;11445;53.816;8.902;2023-06-24T04:07:08;16.50;99.90
22558;DHT22;11445;53.816;8.902;2023-06-24T04:09:35;16.60;99.90
22558;DHT22;11445;53.816;8.902;2023-06-24T04:12:02;16.60;99.90
22558;DHT22;11445;53.816;8.902;2023-06-24T04:14:29;16.60;99.90
22558;DHT22;11445;53.816;8.902;2023-06-24T04:16:56;16.60;99.90
22558;DHT22;11445;53.816;8.902;2023-06-24T04:19:22;16.70;99.90
22558;DHT22;11445;53.816;8.902;2023-06-24T04:21:49;16.70;99.90
22558;DHT22;11445;53.816;8.902;2023-06-24T04:24:17;16.70;99.90
22558;DHT22;11445;53.816;8.902;2023-06-24T04:26:44;16.80;99.90
22558;DHT22;11445;53.816;8.902;2023-06-24T04:29:11;16.90;99.90
22558;DHT22;11445;53.816;8.902;2023-06-24T04:31:37;16.90;99.90
22558;DHT22;11445;53.816;8.902;2023-06-24T04:34:04;17.00;99.90
22558;DHT22;11445;53.816;8.902;2023-06-24T04:36:31;17.00;99.90
22558;DHT22;11445;53.816;8.902;2023-06-24T04:38:58;17.00;99.90
22558;DHT22;11445;53.816;8.902;2023-06-24T04:41:26;17.10;99.90
22558;DHT22;11445;53.816;8.902;2023-06-24T04:43:53;17.10;99.90
22558;DHT22;11445;53.816;8.902;2023-06-24T04:46:20;17.00;99.90
22558;DHT22;11445;53.816;8.902;2023-06-24T04:48:47;17.10;99.90
22558;DHT22;11445;53.816;8.902;2023-06-24T04:51:14;17.10;99.90
22558;DHT22;11445;53.816;8.902;2023-06-24T04:53:41;17.10;99.90
22558;DHT22;11445;53.816;8.902;2023-06-24T04:56:08;17.10;99.90
22558;DHT22;11445;53.816;8.902;2023-06-24T04:58:36;17.10;99.90
22558;DHT22;11445;53.816;8.902;2023-06-24T05:01:03;17.20;99.90
22558;DHT22;11445;53.816;8.902;2023-06-24T05:03:29;17.20;99.90
22558;DHT22;11445;53.816;8.902;2023-06-24T05:05:56;17.30;99.90
22558;DHT22;11445;53.816;8.902;2023-06-24T05:08:23;17.30;99.90
22558;DHT22;11445;53.816;8.902;2023-06-24T05:10:50;17.40;99.90
22558;DHT22;11445;53.816;8.902;2023-06-24T05:13:16;17.40;99.90
22558;DHT22;11445;53.816;8.902;2023-06-24T05:15:45;17.50;99.90
22558;DHT22;11445;53.816;8.902;2023-06-24T05:18:12;17.50;99.90
22558;DHT22;11445;53.816;8.902;2023-06-24T05:20:38;17.60;99.90
22558;DHT22;11445;53.816;8.902;2023-06-24T05:23:05;17.60;99.90
22558;DHT22;11445;53.816;8.902;2023-06-24T05:25:32;17.70;99.90
22558;DHT22;11445;53.816;8.902;2023-06-24T05:28:00;17.80;99.90
22558;DHT22;11445;53.816;8.902;2023-06-24T05:30:27;17.80;99.90
22558;DHT22;11445;53.816;8.902;2023-06-24T05:32:55;17.90;99.90
22558;DHT22;11445;53.816;8.902;2023-06-24T05:35:22;17.90;99.90
22558;DHT22;11445;53.816;8.902;2023-06-24T05:37:49;18.00;99.90
22558;DHT22;11445;53.816;8.902;2023-06-24T05:40:16;18.00;99.90
22558;DHT22;11445;53.816;8.902;2023-06-24T05:42:43;18.10;99.90
22558;DHT22;11445;53.816;8.902;2023-06-24T05:45:10;18.20;99.90
22558;DHT22;11445;53.816;8.902;2023-06-24T05:47:37;18.20;99.90
22558;DHT22;11445;53.816;8.902;2023-06-24T05:50:06;18.30;99.90
22558;DHT22;11445;53.816;8.902;2023-06-24T05:52:33;18.30;99.90
22558;DHT22;11445;53.816;8.902;2023-06-24T05:54:59;18.30;99.90
22558;DHT22;11445;53.816;8.902;2023-06-24T05:57:26;18.40;99.90
22558;DHT22;11445;53.816;8.902;2023-06-24T05:59:53;18.40;99.90
22558;DHT22;11445;53.816;8.902;2023-06-24T06:02:20;18.50;99.90
22558;DHT22;11445;53.816;8.902;2023-06-24T06:04:47;18.50;99.90
22558;DHT22;11445;53.816;8.902;2023-06-24T06:07:15;18.50;99.90
22558;DHT22;11445;53.816;8.902;2023-06-24T06:09:42;18.60;99.90
22558;DHT22;11445;53.816;8.902;2023-06-24T06:12:09;18.60;99.90
22558;DHT22;11445;53.816;8.902;2023-06-24T06:14:36;18.60;99.90
22558;DHT22;11445;53.816;8.902;2023-06-24T06:17:03;18.70;99.90
22558;DHT22;11445;53.816;8.902;2023-06-24T06:19:30;18.70;99.90
22558;DHT22;11445;53.816;8.902;2023-06-24T06:21:57;18.80;99.90
22558;DHT22;11445;53.816;8.902;2023-06-24T06:24:25;18.80;99.90
22558;DHT22;11445;53.816;8.902;2023-06-24T06:26:52;18.90;99.90
22558;DHT22;11445;53.816;8.902;2023-06-24T06:29:19;19.00;99.90
22558;DHT22;11445;53.816;8.902;2023-06-24T06:31:45;19.00;99.90
22558;DHT22;11445;53.816;8.902;2023-06-24T06:34:12;19.10;99.90
22558;DHT22;11445;53.816;8.902;2023-06-24T06:36:39;19.20;99.90
22558;DHT22;11445;53.816;8.902;2023-06-24T06:39:06;19.20;99.90
22558;DHT22;11445;53.816;8.902;2023-06-24T06:41:34;19.40;99.90
22558;DHT22;11445;53.816;8.902;2023-06-24T06:44:01;19.50;99.90
22558;DHT22;11445;53.816;8.902;2023-06-24T06:46:28;19.60;99.90
22558;DHT22;11445;53.816;8.902;2023-06-24T06:48:55;19.70;99.90
22558;DHT22;11445;53.816;8.902;2023-06-24T06:51:21;19.70;99.90
22558;DHT22;11445;53.816;8.902;2023-06-24T06:53:49;19.80;99.90
22558;DHT22;11445;53.816;8.902;2023-06-24T06:56:17;19.90;99.90
22558;DHT22;11445;53.816;8.902;2023-06-24T06:58:45;20.00;99.90
22558;DHT22;11445;53.816;8.902;2023-06-24T07:01:12;20.00;99.90
22558;DHT22;11445;53.816;8.902;2023-06-24T07:03:39;20.00;99.90
22558;DHT22;11445;53.816;8.902;2023-06-24T07:06:06;20.10;99.90
22558;DHT22;11445;53.816;8.902;2023-06-24T07:08:33;20.10;99.90
22558;DHT22;11445;53.816;8.902;2023-06-24T07:11:00;20.10;99.90
22558;DHT22;11445;53.816;8.902;2023-06-24T07:13:27;20.10;99.90
22558;DHT22;11445;53.816;8.902;2023-06-24T07:15:55;20.10;99.90
22558;DHT22;11445;53.816;8.902;2023-06-24T07:18:22;20.10;99.90
22558;DHT22;11445;53.816;8.902;2023-06-24T07:20:49;20.20;99.90
22558;DHT22;11445;53.816;8.902;2023-06-24T07:23:16;20.30;99.90
22558;DHT22;11445;53.816;8.902;2023-06-24T07:25:42;20.30;99.90
22558;DHT22;11445;53.816;8.902;2023-06-24T07:28:09;20.30;99.90
22558;DHT22;11445;53.816;8.902;2023-06-24T07:30:36;20.30;99.90
22558;DHT22;11445;53.816;8.902;2023-06-24T07:33:04;20.40;99.90
22558;DHT22;11445;53.816;8.902;2023-06-24T07:35:31;20.40;99.90
22558;DHT22;11445;53.816;8.902;2023-06-24T07:37:58;20.50;99.90
22558;DHT22;11445;53.816;8.902;2023-06-24T07:40:25;20.50;99.90
22558;DHT22;11445;53.816;8.902;2023-06-24T07:42:53;20.60;99.90
22558;DHT22;11445;53.816;8.902;2023-06-24T07:45:20;20.60;99.90
22558;DHT22;11445;53.816;8.902;2023-06-24T07:47:47;20.60;99.90
22558;DHT22;11445;53.816;8.902;2023-06-24T07:50:15;20.70;99.90
22558;DHT22;11445;53.816;8.902;2023-06-24T07:52:42;20.70;99.90
22558;DHT22;11445;53.816;8.902;2023-06-24T07:55:09;20.70;99.90
22558;DHT22;11445;53.816;8.902;2023-06-24T07:57:35;20.70;99.90
22558;DHT22;11445;53.816;8.902;2023-06-24T08:00:03;20.80;99.90
22558;DHT22;11445;53.816;8.902;2023-06-24T08:02:30;20.80;99.90
22558;DHT22;11445;53.816;8.902;2023-06-24T08:04:57;20.90;99.90
22558;DHT22;11445;53.816;8.902;2023-06-24T08:07:25;20.90;99.90
22558;DHT22;11445;53.816;8.902;2023-06-24T08:09:52;20.90;99.90
22558;DHT22;11445;53.816;8.902;2023-06-24T08:12:19;21.00;99.90
22558;DHT22;11445;53.816;8.902;2023-06-24T08:14:45;21.00;99.90
22558;DHT22;11445;53.816;8.902;2023-06-24T08:17:12;21.10;99.90
22558;DHT22;11445;53.816;8.902;2023-06-24T08:19:39;21.20;99.90
22558;DHT22;11445;53.816;8.902;2023-06-24T08:22:06;21.30;99.90
22558;DHT22;11445;53.816;8.902;2023-06-24T08:24:34;21.40;99.90
22558;DHT22;11445;53.816;8.902;2023-06-24T08:27:01;21.50;99.90
22558;DHT22;11445;53.816;8.902;2023-06-24T08:29:27;21.60;99.90
22558;DHT22;11445;53.816;8.902;2023-06-24T08:31:54;21.80;99.90
22558;DHT22;11445;53.816;8.902;2023-06-24T08:34:21;22.00;99.90
22558;DHT22;11445;53.816;8.902;2023-06-24T08:36:48;22.10;99.90
22558;DHT22;11445;53.816;8.902;2023-06-24T08:39:15;22.10;99.90
22558;DHT22;11445;53.816;8.902;2023-06-24T08:41:43;22.10;99.90
22558;DHT22;11445;53.816;8.902;2023-06-24T08:44:09;22.10;99.90
22558;DHT22;11445;53.816;8.902;2023-06-24T08:46:36;22.20;99.90
22558;DHT22;11445;53.816;8.902;2023-06-24T08:49:11;22.30;99.90
22558;DHT22;11445;53.816;8.902;2023-06-24T08:51:44;22.40;99.90
22558;DHT22;11445;53.816;8.902;2023-06-24T08:54:14;22.50;99.90
22558;DHT22;11445;53.816;8.902;2023-06-24T08:56:43;22.60;99.90
22558;DHT22;11445;53.816;8.902;2023-06-24T08:59:10;22.60;99.90
22558;DHT22;11445;53.816;8.902;2023-06-24T09:01:37;22.70;99.90
22558;DHT22;11445;53.816;8.902;2023-06-24T09:04:04;22.60;99.90
22558;DHT22;11445;53.816;8.902;2023-06-24T09:06:31;22.70;99.90
22558;DHT22;11445;53.816;8.902;2023-06-24T09:08:58;22.70;99.90
22558;DHT22;11445;53.816;8.902;2023-06-24T09:11:26;22.80;99.90
22558;DHT22;11445;53.816;8.902;2023-06-24T09:13:58;22.90;99.90
22558;DHT22;11445;53.816;8.902;2023-06-24T09:16:26;23.00;99.90
22558;DHT22;11445;53.816;8.902;2023-06-24T09:18:53;23.00;99.90
22558;DHT22;11445;53.816;8.902;2023-06-24T09:21:23;23.00;99.90
22558;DHT22;11445;53.816;8.902;2023-06-24T09:23:53;23.20;99.90
22558;DHT22;11445;53.816;8.902;2023-06-24T09:26:22;23.30;99.90
22558;DHT22;11445;53.816;8.902;2023-06-24T09:28:49;23.40;99.90
22558;DHT22;11445;53.816;8.902;2023-06-24T09:31:18;23.40;99.90
22558;DHT22;11445;53.816;8.902;2023-06-24T09:33:45;23.40;99.90
22558;DHT22;11445;53.816;8.902;2023-06-24T09:36:12;23.50;99.90
22558;DHT22;11445;53.816;8.902;2023-06-24T09:38:41;23.60;99.90
22558;DHT22;11445;53.816;8.902;2023-06-24T09:41:10;23.60;99.90
22558;DHT22;11445;53.816;8.902;2023-06-24T09:43:37;23.80;99.90
22558;DHT22;11445;53.816;8.902;2023-06-24T09:46:07;23.80;99.90
22558;DHT22;11445;53.816;8.902;2023-06-24T09:48:35;23.90;99.90
22558;DHT22;11445;53.816;8.902;2023-06-24T09:51:03;23.80;99.90
22558;DHT22;11445;53.816;8.902;2023-06-24T09:53:31;23.70;99.90
22558;DHT22;11445;53.816;8.902;2023-06-24T09:56:00;23.70;99.90
22558;DHT22;11445;53.816;8.902;2023-06-24T09:58:28;23.60;99.90
22558;DHT22;11445;53.816;8.902;2023-06-24T10:00:59;23.40;99.90
22558;DHT22;11445;53.816;8.902;2023-06-24T10:03:28;23.40;99.90
22558;DHT22;11445;53.816;8.902;2023-06-24T10:05:57;23.40;99.90
22558;DHT22;11445;53.816;8.902;2023-06-24T10:08:24;23.40;99.90
22558;DHT22;11445;53.816;8.902;2023-06-24T10:10:51;23.60;99.90
22558;DHT22;11445;53.816;8.902;2023-06-24T10:13:18;23.60;99.90
22558;DHT22;11445;53.816;8.902;2023-06-24T10:15:45;23.70;99.90
22558;DHT22;11445;53.816;8.902;2023-06-24T10:18:33;23.70;99.90
22558;DHT22;11445;53.816;8.902;2023-06-24T10:21:02;23.70;99.90
22558;DHT22;11445;53.816;8.902;2023-06-24T10:23:51;23.70;99.90
22558;DHT22;11445;53.816;8.902;2023-06-24T10:26:23;23.70;99.90
22558;DHT22;11445;53.816;8.902;2023-06-24T10:29:12;23.70;99.90
22558;DHT22;11445;53.816;8.902;2023-06-24T10:31:53;23.80;99.90
22558;DHT22;11445;53.816;8.902;2023-06-24T10:34:33;23.90;99.90
22558;DHT22;11445;53.816;8.902;2023-06-24T10:37:03;23.90;99.90
22558;DHT22;11445;53.816;8.902;2023-06-24T10:39:44;23.90;99.90
22558;DHT22;11445;53.816;8.902;2023-06-24T10:42:31;23.90;99.90
22558;DHT22;11445;53.816;8.902;2023-06-24T10:45:01;23.90;99.90
22558;DHT22;11445;53.816;8.902;2023-06-24T10:47:29;24.00;99.90
22558;DHT22;11445;53.816;8.902;2023-06-24T10:49:56;24.00;99.90
22558;DHT22;11445;53.816;8.902;2023-06-24T10:52:24;24.10;99.90
22558;DHT22;11445;53.816;8.902;2023-06-24T10:54:52;24.20;99.90
22558;DHT22;11445;53.816;8.902;2023-06-24T10:57:21;24.30;99.90
22558;DHT22;11445;53.816;8.902;2023-06-24T10:59:50;24.40;99.90
22558;DHT22;11445;53.816;8.902;2023-06-24T11:02:18;24.40;99.90
22558;DHT22;11445;53.816;8.902;2023-06-24T11:04:45;24.40;99.90
22558;DHT22;11445;53.816;8.902;2023-06-24T11:07:13;24.50;99.90
22558;DHT22;11445;53.816;8.902;2023-06-24T11:09:41;24.60;99.90
22558;DHT22;11445;53.816;8.902;2023-06-24T11:12:09;24.70;99.90
22558;DHT22;11445;53.816;8.902;2023-06-24T11:14:38;24.80;99.90
22558;DHT22;11445;53.816;8.902;2023-06-24T11:17:05;24.90;99.90
22558;DHT22;11445;53.816;8.902;2023-06-24T11:19:32;24.90;99.90
22558;DHT22;11445;53.816;8.902;2023-06-24T11:22:01;24.90;99.90
22558;DHT22;11445;53.816;8.902;2023-06-24T11:24:28;24.90;99.90
22558;DHT22;11445;53.816;8.902;2023-06-24T11:26:57;24.90;99.90
22558;DHT22;11445;53.816;8.902;2023-06-24T11:29:24;25.00;99.90
22558;DHT22;11445;53.816;8.902;2023-06-24T11:31:51;25.00;99.90
22558;DHT22;11445;53.816;8.902;2023-06-24T11:34:18;25.00;99.90
22558;DHT22;11445;53.816;8.902;2023-06-24T11:36:44;25.00;99.90
22558;DHT22;11445;53.816;8.902;2023-06-24T11:39:21;25.10;99.90
22558;DHT22;11445;53.816;8.902;2023-06-24T11:41:48;25.10;99.90
22558;DHT22;11445;53.816;8.902;2023-06-24T11:44:18;25.00;99.90
22558;DHT22;11445;53.816;8.902;2023-06-24T11:46:46;24.90;99.90
22558;DHT22;11445;53.816;8.902;2023-06-24T11:49:13;24.90;99.90
22558;DHT22;11445;53.816;8.902;2023-06-24T11:51:46;25.00;99.90
22558;DHT22;11445;53.816;8.902;2023-06-24T11:54:15;25.20;99.90
22558;DHT22;11445;53.816;8.902;2023-06-24T11:56:44;25.30;99.90
22558;DHT22;11445;53.816;8.902;2023-06-24T11:59:19;25.40;99.90
22558;DHT22;11445;53.816;8.902;2023-06-24T12:01:52;25.50;99.90
22558;DHT22;11445;53.816;8.902;2023-06-24T12:04:20;25.60;99.90
22558;DHT22;11445;53.816;8.902;2023-06-24T12:06:47;25.70;99.90
22558;DHT22;11445;53.816;8.902;2023-06-24T12:09:14;25.70;99.90
22558;DHT22;11445;53.816;8.902;2023-06-24T12:11:41;25.80;99.90
22558;DHT22;11445;53.816;8.902;2023-06-24T12:14:08;25.90;99.90
22558;DHT22;11445;53.816;8.902;2023-06-24T12:16:38;26.00;99.90
22558;DHT22;11445;53.816;8.902;2023-06-24T12:19:05;26.20;99.90
22558;DHT22;11445;53.816;8.902;2023-06-24T12:21:32;26.30;99.90
22558;DHT22;11445;53.816;8.902;2023-06-24T12:23:59;26.30;99.90
22558;DHT22;11445;53.816;8.902;2023-06-24T12:26:26;26.30;99.90
22558;DHT22;11445;53.816;8.902;2023-06-24T12:28:54;26.40;99.90
22558;DHT22;11445;53.816;8.902;2023-06-24T12:31:21;26.40;99.90
22558;DHT22;11445;53.816;8.902;2023-06-24T12:33:50;26.40;99.90
22558;DHT22;11445;53.816;8.902;2023-06-24T12:36:17;26.50;99.90
22558;DHT22;11445;53.816;8.902;2023-06-24T12:38:44;26.40;99.90
22558;DHT22;11445;53.816;8.902;2023-06-24T12:41:11;26.40;99.90
22558;DHT22;11445;53.816;8.902;2023-06-24T12:43:37;26.30;99.90
22558;DHT22;11445;53.816;8.902;2023-06-24T12:46:04;26.20;99.90
22558;DHT22;11445;53.816;8.902;2023-06-24T12:48:31;26.20;99.90
22558;DHT22;11445;53.816;8.902;2023-06-24T12:50:59;26.20;99.90
22558;DHT22;11445;53.816;8.902;2023-06-24T12:53:26;26.10;99.90
22558;DHT22;11445;53.816;8.902;2023-06-24T12:55:53;26.10;99.90
22558;DHT22;11445;53.816;8.902;2023-06-24T12:58:23;26.10;99.90
22558;DHT22;11445;53.816;8.902;2023-06-24T13:00:50;26.10;99.90
22558;DHT22;11445;53.816;8.902;2023-06-24T13:03:17;26.20;99.90
22558;DHT22;11445;53.816;8.902;2023-06-24T13:05:44;26.20;99.90
22558;DHT22;11445;53.816;8.902;2023-06-24T13:08:12;26.20;99.90
22558;DHT22;11445;53.816;8.902;2023-06-24T13:10:39;26.20;99.90
22558;DHT22;11445;53.816;8.902;2023-06-24T13:13:05;26.20;99.90
22558;DHT22;11445;53.816;8.902;2023-06-24T13:15:32;26.10;99.90
22558;DHT22;11445;53.816;8.902;2023-06-24T13:17:59;26.10;99.90
22558;DHT22;11445;53.816;8.902;2023-06-24T13:20:27;26.10;99.90
22558;DHT22;11445;53.816;8.902;2023-06-24T13:22:54;26.00;99.90
22558;DHT22;11445;53.816;8.902;2023-06-24T13:25:22;26.10;99.90
22558;DHT22;11445;53.816;8.902;2023-06-24T13:27:49;26.10;99.90
22558;DHT22;11445;53.816;8.902;2023-06-24T13:30:16;26.10;99.90
22558;DHT22;11445;53.816;8.902;2023-06-24T13:32:43;26.10;99.90
22558;DHT22;11445;53.816;8.902;2023-06-24T13:35:10;26.20;99.90
22558;DHT22;11445;53.816;8.902;2023-06-24T13:37:37;26.20;99.90
22558;DHT22;11445;53.816;8.902;2023-06-24T13:40:06;26.20;99.90
22558;DHT22;11445;53.816;8.902;2023-06-24T13:42:34;26.20;99.90
22558;DHT22;11445;53.816;8.902;2023-06-24T13:45:01;26.10;99.90
22558;DHT22;11445;53.816;8.902;2023-06-24T13:47:28;26.10;99.90
22558;DHT22;11445;53.816;8.902;2023-06-24T13:49:55;26.10;99.90
22558;DHT22;11445;53.816;8.902;2023-06-24T13:52:24;26.20;99.90
22558;DHT22;11445;53.816;8.902;2023-06-24T13:54:51;26.30;99.90
22558;DHT22;11445;53.816;8.902;2023-06-24T13:57:18;26.40;99.90
22558;DHT22;11445;53.816;8.902;2023-06-24T13:59:46;26.40;99.90
22558;DHT22;11445;53.816;8.902;2023-06-24T14:02:13;26.40;99.90
22558;DHT22;11445;53.816;8.902;2023-06-24T14:04:40;26.40;99.90
22558;DHT22;11445;53.816;8.902;2023-06-24T14:07:07;26.20;99.90
22558;DHT22;11445;53.816;8.902;2023-06-24T14:09:34;26.10;99.90
22558;DHT22;11445;53.816;8.902;2023-06-24T14:12:01;25.90;99.90
22558;DHT22;11445;53.816;8.902;2023-06-24T14:14:28;25.70;99.90
22558;DHT22;11445;53.816;8.902;2023-06-24T14:16:56;25.60;99.90
22558;DHT22;11445;53.816;8.902;2023-06-24T14:19:23;25.40;99.90
22558;DHT22;11445;53.816;8.902;2023-06-24T14:21:50;25.30;99.90
22558;DHT22;11445;53.816;8.902;2023-06-24T14:24:16;25.20;99.90
22558;DHT22;11445;53.816;8.902;2023-06-24T14:26:43;25.00;99.90
22558;DHT22;11445;53.816;8.902;2023-06-24T14:29:10;24.90;99.90
22558;DHT22;11445;53.816;8.902;2023-06-24T14:31:37;24.80;99.90
22558;DHT22;11445;53.816;8.902;2023-06-24T14:34:05;24.70;99.90
22558;DHT22;11445;53.816;8.902;2023-06-24T14:36:32;24.70;99.90
22558;DHT22;11445;53.816;8.902;2023-06-24T14:38:58;24.70;99.90
22558;DHT22;11445;53.816;8.902;2023-06-24T14:41:25;24.80;99.90
22558;DHT22;11445;53.816;8.902;2023-06-24T14:43:52;24.80;99.90
22558;DHT22;11445;53.816;8.902;2023-06-24T14:46:19;24.80;99.90
22558;DHT22;11445;53.816;8.902;2023-06-24T14:48:46;24.70;99.90
22558;DHT22;11445;53.816;8.902;2023-06-24T14:51:14;24.60;99.90
22558;DHT22;11445;53.816;8.902;2023-06-24T14:53:41;24.60;99.90
22558;DHT22;11445;53.816;8.902;2023-06-24T14:56:07;24.60;99.90
22558;DHT22;11445;53.816;8.902;2023-06-24T14:58:34;24.60;99.90
22558;DHT22;11445;53.816;8.902;2023-06-24T15:01:01;24.70;99.90
22558;DHT22;11445;53.816;8.902;2023-06-24T15:03:28;24.70;99.90
22558;DHT22;11445;53.816;8.902;2023-06-24T15:05:55;24.70;99.90
22558;DHT22;11445;53.816;8.902;2023-06-24T15:08:23;24.70;99.90
22558;DHT22;11445;53.816;8.902;2023-06-24T15:10:51;24.80;99.90
22558;DHT22;11445;53.816;8.902;2023-06-24T15:13:17;24.80;99.90
22558;DHT22;11445;53.816;8.902;2023-06-24T15:15:44;24.80;99.90
22558;DHT22;11445;53.816;8.902;2023-06-24T15:18:11;24.80;99.90
22558;DHT22;11445;53.816;8.902;2023-06-24T15:20:40;24.80;99.90
22558;DHT22;11445;53.816;8.902;2023-06-24T15:23:07;24.90;99.90
22558;DHT22;11445;53.816;8.902;2023-06-24T15:25:35;24.90;99.90
22558;DHT22;11445;53.816;8.902;2023-06-24T15:28:02;24.90;99.90
22558;DHT22;11445;53.816;8.902;2023-06-24T15:30:28;25.00;99.90
22558;DHT22;11445;53.816;8.902;2023-06-24T15:32:55;24.90;99.90
22558;DHT22;11445;53.816;8.902;2023-06-24T15:35:22;24.80;99.90
22558;DHT22;11445;53.816;8.902;2023-06-24T15:37:49;24.70;99.90